sensor_id;sensor_type;location;lat;lon;timestamp;P1;durP1;ratioP1;P2;durP2;ratioP2
49502;SDS011;35409;48.776;9.204;2022-11-11T00:01:25;14.30;;;7.80;;
49502;SDS011;35409;48.776;9.204;2022-11-11T00:03:44;19.05;;;8.63;;
49502;SDS011;35409;48.776;9.204;2022-11-11T00:06:10;14.52;;;8.48;;
49502;SDS011;35409;48.776;9.204;2022-11-11T00:08:38;16.67;;;9.02;;
49502;SDS011;35409;48.776;9.204;2022-11-11T00:11:05;17.48;;;8.88;;
49502;SDS011;35409;48.776;9.204;2022-11-11T00:13:33;14.55;;;8.25;;
49502;SDS011;35409;48.776;9.204;2022-11-11T00:16:06;19.27;;;9.05;;
49502;SDS011;35409;48.776;9.204;2022-11-11T00:21:24;19.80;;;9.77;;
49502;SDS011;35409;48.776;9.204;2022-11-11T00:24:19;18.08;;;8.73;;
49502;SDS011;35409;48.776;9.204;2022-11-11T00:27:04;17.90;;;9.05;;
49502;SDS011;35409;48.776;9.204;2022-11-11T00:29:30;17.52;;;8.18;;
49502;SDS011;35409;48.776;9.204;2022-11-11T00:31:56;15.35;;;8.80;;
49502;SDS011;35409;48.776;9.204;2022-11-11T00:34:40;11.32;;;7.50;;
49502;SDS011;35409;48.776;9.204;2022-11-11T00:37:26;13.52;;;7.68;;
49502;SDS011;35409;48.776;9.204;2022-11-11T00:39:51;17.10;;;8.50;;
49502;SDS011;35409;48.776;9.204;2022-11-11T00:42:17;14.63;;;8.20;;
49502;SDS011;35409;48.776;9.204;2022-11-11T00:44:42;18.98;;;9.88;;
49502;SDS011;35409;48.776;9.204;2022-11-11T00:47:08;16.33;;;9.38;;
49502;SDS011;35409;48.776;9.204;2022-11-11T00:49:53;19.13;;;9.77;;
49502;SDS011;35409;48.776;9.204;2022-11-11T00:52:37;18.27;;;8.82;;
49502;SDS011;35409;48.776;9.204;2022-11-11T00:55:03;20.02;;;9.70;;
49502;SDS011;35409;48.776;9.204;2022-11-11T00:57:29;18.00;;;10.15;;
49502;SDS011;35409;48.776;9.204;2022-11-11T00:59:54;20.67;;;9.52;;
49502;SDS011;35409;48.776;9.204;2022-11-11T01:02:20;17.45;;;10.23;;
49502;SDS011;35409;48.776;9.204;2022-11-11T01:04:45;19.02;;;9.88;;
49502;SDS011;35409;48.776;9.204;2022-11-11T01:07:11;16.27;;;9.10;;
49502;SDS011;35409;48.776;9.204;2022-11-11T01:09:36;20.80;;;9.85;;
49502;SDS011;35409;48.776;9.204;2022-11-11T01:12:02;15.10;;;9.40;;
49502;SDS011;35409;48.776;9.204;2022-11-11T01:14:29;17.52;;;10.55;;
49502;SDS011;35409;48.776;9.204;2022-11-11T01:16:54;18.30;;;10.45;;
49502;SDS011;35409;48.776;9.204;2022-11-11T01:19:20;20.40;;;10.35;;
49502;SDS011;35409;48.776;9.204;2022-11-11T01:21:45;18.98;;;9.63;;
49502;SDS011;35409;48.776;9.204;2022-11-11T01:24:11;17.15;;;9.40;;
49502;SDS011;35409;48.776;9.204;2022-11-11T01:26:37;15.00;;;8.60;;
49502;SDS011;35409;48.776;9.204;2022-11-11T01:29:02;20.33;;;9.73;;
49502;SDS011;35409;48.776;9.204;2022-11-11T01:31:28;12.68;;;8.45;;
49502;SDS011;35409;48.776;9.204;2022-11-11T01:33:53;13.40;;;8.55;;
49502;SDS011;35409;48.776;9.204;2022-11-11T01:36:21;12.38;;;7.72;;
49502;SDS011;35409;48.776;9.204;2022-11-11T01:38:50;15.10;;;7.85;;
49502;SDS011;35409;48.776;9.204;2022-11-11T01:41:18;13.68;;;8.13;;
49502;SDS011;35409;48.776;9.204;2022-11-11T01:43:59;18.27;;;8.32;;
49502;SDS011;35409;48.776;9.204;2022-11-11T01:59:48;19.38;;;9.23;;
49502;SDS011;35409;48.776;9.204;2022-11-11T02:02:21;15.60;;;9.20;;
49502;SDS011;35409;48.776;9.204;2022-11-11T02:04:51;14.23;;;8.05;;
49502;SDS011;35409;48.776;9.204;2022-11-11T02:07:36;16.27;;;8.82;;
49502;SDS011;35409;48.776;9.204;2022-11-11T02:10:04;12.98;;;8.38;;
49502;SDS011;35409;48.776;9.204;2022-11-11T02:12:32;12.40;;;8.35;;
49502;SDS011;35409;48.776;9.204;2022-11-11T02:15:16;14.75;;;8.27;;
49502;SDS011;35409;48.776;9.204;2022-11-11T02:17:42;11.05;;;7.65;;
49502;SDS011;35409;48.776;9.204;2022-11-11T02:20:08;13.98;;;8.60;;
49502;SDS011;35409;48.776;9.204;2022-11-11T02:22:47;13.27;;;8.73;;
49502;SDS011;35409;48.776;9.204;2022-11-11T02:25:18;15.02;;;8.85;;
49502;SDS011;35409;48.776;9.204;2022-11-11T02:27:47;16.63;;;9.80;;
49502;SDS011;35409;48.776;9.204;2022-11-11T02:30:16;19.37;;;9.10;;
49502;SDS011;35409;48.776;9.204;2022-11-11T02:32:44;21.73;;;9.40;;
49502;SDS011;35409;48.776;9.204;2022-11-11T02:35:16;17.15;;;9.30;;
49502;SDS011;35409;48.776;9.204;2022-11-11T02:37:58;14.40;;;8.68;;
49502;SDS011;35409;48.776;9.204;2022-11-11T02:40:41;14.73;;;8.50;;
49502;SDS011;35409;48.776;9.204;2022-11-11T02:43:28;14.60;;;8.02;;
49502;SDS011;35409;48.776;9.204;2022-11-11T02:45:56;16.90;;;9.60;;
49502;SDS011;35409;48.776;9.204;2022-11-11T02:48:22;14.00;;;9.02;;
49502;SDS011;35409;48.776;9.204;2022-11-11T02:50:48;12.95;;;8.43;;
49502;SDS011;35409;48.776;9.204;2022-11-11T02:53:14;11.95;;;8.10;;
49502;SDS011;35409;48.776;9.204;2022-11-11T02:55:39;10.88;;;7.72;;
49502;SDS011;35409;48.776;9.204;2022-11-11T02:58:05;16.10;;;8.45;;
49502;SDS011;35409;48.776;9.204;2022-11-11T03:00:31;11.63;;;8.40;;
49502;SDS011;35409;48.776;9.204;2022-11-11T03:02:56;16.05;;;8.68;;
49502;SDS011;35409;48.776;9.204;2022-11-11T03:05:22;13.55;;;8.40;;
49502;SDS011;35409;48.776;9.204;2022-11-11T03:07:48;16.05;;;8.13;;
49502;SDS011;35409;48.776;9.204;2022-11-11T03:10:14;16.05;;;7.80;;
49502;SDS011;35409;48.776;9.204;2022-11-11T03:12:40;14.98;;;7.78;;
49502;SDS011;35409;48.776;9.204;2022-11-11T03:15:05;11.95;;;7.88;;
49502;SDS011;35409;48.776;9.204;2022-11-11T03:17:31;20.88;;;8.40;;
49502;SDS011;35409;48.776;9.204;2022-11-11T03:20:15;14.95;;;8.38;;
49502;SDS011;35409;48.776;9.204;2022-11-11T03:23:11;13.85;;;8.65;;
49502;SDS011;35409;48.776;9.204;2022-11-11T03:25:38;18.38;;;9.60;;
49502;SDS011;35409;48.776;9.204;2022-11-11T03:28:12;15.63;;;9.13;;
49502;SDS011;35409;48.776;9.204;2022-11-11T03:30:40;13.20;;;8.27;;
49502;SDS011;35409;48.776;9.204;2022-11-11T03:33:07;16.25;;;9.05;;
49502;SDS011;35409;48.776;9.204;2022-11-11T03:35:34;18.60;;;9.02;;
49502;SDS011;35409;48.776;9.204;2022-11-11T03:38:00;14.23;;;9.02;;
49502;SDS011;35409;48.776;9.204;2022-11-11T03:41:02;17.17;;;8.70;;
49502;SDS011;35409;48.776;9.204;2022-11-11T03:43:31;14.52;;;8.70;;
49502;SDS011;35409;48.776;9.204;2022-11-11T03:45:59;13.85;;;8.57;;
49502;SDS011;35409;48.776;9.204;2022-11-11T03:48:30;11.55;;;8.07;;
49502;SDS011;35409;48.776;9.204;2022-11-11T03:50:57;12.95;;;8.95;;
49502;SDS011;35409;48.776;9.204;2022-11-11T03:53:23;15.55;;;8.25;;
49502;SDS011;35409;48.776;9.204;2022-11-11T03:55:49;12.80;;;8.15;;
49502;SDS011;35409;48.776;9.204;2022-11-11T03:58:16;14.55;;;9.07;;
49502;SDS011;35409;48.776;9.204;2022-11-11T04:00:42;19.52;;;9.38;;
49502;SDS011;35409;48.776;9.204;2022-11-11T04:03:09;16.08;;;8.55;;
49502;SDS011;35409;48.776;9.204;2022-11-11T04:05:55;15.60;;;9.10;;
49502;SDS011;35409;48.776;9.204;2022-11-11T04:08:40;15.57;;;8.55;;
49502;SDS011;35409;48.776;9.204;2022-11-11T04:14:04;17.75;;;9.98;;
49502;SDS011;35409;48.776;9.204;2022-11-11T04:17:04;20.30;;;10.23;;
49502;SDS011;35409;48.776;9.204;2022-11-11T04:19:30;13.20;;;9.48;;
49502;SDS011;35409;48.776;9.204;2022-11-11T04:22:28;17.15;;;10.38;;
49502;SDS011;35409;48.776;9.204;2022-11-11T04:24:53;18.75;;;10.43;;
49502;SDS011;35409;48.776;9.204;2022-11-11T04:27:38;13.27;;;9.07;;
49502;SDS011;35409;48.776;9.204;2022-11-11T04:30:03;16.65;;;9.43;;
49502;SDS011;35409;48.776;9.204;2022-11-11T04:32:29;13.82;;;9.68;;
49502;SDS011;35409;48.776;9.204;2022-11-11T04:35:05;18.85;;;9.65;;
49502;SDS011;35409;48.776;9.204;2022-11-11T04:37:36;18.63;;;10.05;;
49502;SDS011;35409;48.776;9.204;2022-11-11T04:40:10;28.25;;;15.57;;
49502;SDS011;35409;48.776;9.204;2022-11-11T04:42:54;24.92;;;13.80;;
49502;SDS011;35409;48.776;9.204;2022-11-11T04:45:20;26.05;;;15.32;;
49502;SDS011;35409;48.776;9.204;2022-11-11T04:50:34;23.55;;;12.80;;
49502;SDS011;35409;48.776;9.204;2022-11-11T04:53:04;17.35;;;12.25;;
49502;SDS011;35409;48.776;9.204;2022-11-11T04:55:31;18.75;;;12.13;;
49502;SDS011;35409;48.776;9.204;2022-11-11T04:58:16;22.40;;;13.05;;
49502;SDS011;35409;48.776;9.204;2022-11-11T05:00:43;20.10;;;12.55;;
49502;SDS011;35409;48.776;9.204;2022-11-11T05:03:12;21.92;;;12.30;;
49502;SDS011;35409;48.776;9.204;2022-11-11T05:08:42;19.08;;;11.52;;
49502;SDS011;35409;48.776;9.204;2022-11-11T05:11:38;19.77;;;12.85;;
49502;SDS011;35409;48.776;9.204;2022-11-11T05:14:04;23.33;;;12.98;;
49502;SDS011;35409;48.776;9.204;2022-11-11T05:16:53;21.85;;;13.13;;
49502;SDS011;35409;48.776;9.204;2022-11-11T05:19:38;22.02;;;12.57;;
49502;SDS011;35409;48.776;9.204;2022-11-11T05:22:24;21.58;;;12.98;;
49502;SDS011;35409;48.776;9.204;2022-11-11T05:24:55;26.02;;;13.30;;
49502;SDS011;35409;48.776;9.204;2022-11-11T05:27:39;21.58;;;14.05;;
49502;SDS011;35409;48.776;9.204;2022-11-11T05:30:06;26.33;;;13.40;;
49502;SDS011;35409;48.776;9.204;2022-11-11T05:32:33;26.85;;;14.73;;
49502;SDS011;35409;48.776;9.204;2022-11-11T05:34:59;25.52;;;14.07;;
49502;SDS011;35409;48.776;9.204;2022-11-11T05:37:25;19.65;;;12.63;;
49502;SDS011;35409;48.776;9.204;2022-11-11T05:39:50;19.95;;;13.10;;
49502;SDS011;35409;48.776;9.204;2022-11-11T05:42:16;27.08;;;14.68;;
49502;SDS011;35409;48.776;9.204;2022-11-11T05:44:42;23.50;;;13.80;;
49502;SDS011;35409;48.776;9.204;2022-11-11T05:47:07;21.55;;;13.50;;
49502;SDS011;35409;48.776;9.204;2022-11-11T05:49:33;21.10;;;12.98;;
49502;SDS011;35409;48.776;9.204;2022-11-11T05:51:59;22.23;;;12.77;;
49502;SDS011;35409;48.776;9.204;2022-11-11T05:54:25;17.80;;;11.65;;
49502;SDS011;35409;48.776;9.204;2022-11-11T05:56:51;20.48;;;12.75;;
49502;SDS011;35409;48.776;9.204;2022-11-11T05:59:16;19.30;;;12.00;;
49502;SDS011;35409;48.776;9.204;2022-11-11T06:01:42;23.02;;;14.18;;
49502;SDS011;35409;48.776;9.204;2022-11-11T06:04:09;23.15;;;14.65;;
49502;SDS011;35409;48.776;9.204;2022-11-11T06:06:35;19.30;;;13.82;;
49502;SDS011;35409;48.776;9.204;2022-11-11T06:09:00;23.80;;;12.75;;
49502;SDS011;35409;48.776;9.204;2022-11-11T06:11:27;20.13;;;12.15;;
49502;SDS011;35409;48.776;9.204;2022-11-11T06:13:53;24.70;;;12.30;;
49502;SDS011;35409;48.776;9.204;2022-11-11T06:16:19;20.60;;;11.68;;
49502;SDS011;35409;48.776;9.204;2022-11-11T06:18:45;17.63;;;11.80;;
49502;SDS011;35409;48.776;9.204;2022-11-11T06:21:11;17.95;;;11.27;;
49502;SDS011;35409;48.776;9.204;2022-11-11T06:23:37;23.65;;;13.05;;
49502;SDS011;35409;48.776;9.204;2022-11-11T06:26:03;21.95;;;12.50;;
49502;SDS011;35409;48.776;9.204;2022-11-11T06:28:41;24.55;;;13.18;;
49502;SDS011;35409;48.776;9.204;2022-11-11T06:31:09;22.77;;;13.52;;
49502;SDS011;35409;48.776;9.204;2022-11-11T06:33:37;24.48;;;14.68;;
49502;SDS011;35409;48.776;9.204;2022-11-11T06:36:03;25.23;;;14.15;;
49502;SDS011;35409;48.776;9.204;2022-11-11T06:38:30;21.08;;;12.35;;
49502;SDS011;35409;48.776;9.204;2022-11-11T06:40:56;20.08;;;13.15;;
49502;SDS011;35409;48.776;9.204;2022-11-11T06:43:22;23.48;;;13.52;;
49502;SDS011;35409;48.776;9.204;2022-11-11T06:45:52;22.60;;;14.63;;
49502;SDS011;35409;48.776;9.204;2022-11-11T06:48:19;21.63;;;13.77;;
49502;SDS011;35409;48.776;9.204;2022-11-11T06:50:46;31.75;;;16.35;;
49502;SDS011;35409;48.776;9.204;2022-11-11T06:53:12;26.60;;;14.50;;
49502;SDS011;35409;48.776;9.204;2022-11-11T06:55:39;28.83;;;14.65;;
49502;SDS011;35409;48.776;9.204;2022-11-11T06:58:10;24.95;;;12.95;;
49502;SDS011;35409;48.776;9.204;2022-11-11T07:00:40;24.33;;;14.88;;
49502;SDS011;35409;48.776;9.204;2022-11-11T07:03:08;26.02;;;13.55;;
49502;SDS011;35409;48.776;9.204;2022-11-11T07:05:35;23.20;;;14.15;;
49502;SDS011;35409;48.776;9.204;2022-11-11T07:08:01;30.98;;;16.27;;
49502;SDS011;35409;48.776;9.204;2022-11-11T07:10:28;31.55;;;16.50;;
49502;SDS011;35409;48.776;9.204;2022-11-11T07:12:54;27.15;;;16.38;;
49502;SDS011;35409;48.776;9.204;2022-11-11T07:15:20;31.38;;;17.90;;
49502;SDS011;35409;48.776;9.204;2022-11-11T07:17:46;28.20;;;16.10;;
49502;SDS011;35409;48.776;9.204;2022-11-11T07:20:11;28.85;;;16.20;;
49502;SDS011;35409;48.776;9.204;2022-11-11T07:22:37;25.98;;;14.48;;
49502;SDS011;35409;48.776;9.204;2022-11-11T07:25:02;28.17;;;16.90;;
49502;SDS011;35409;48.776;9.204;2022-11-11T07:27:28;24.90;;;15.23;;
49502;SDS011;35409;48.776;9.204;2022-11-11T07:29:54;25.80;;;13.68;;
49502;SDS011;35409;48.776;9.204;2022-11-11T07:32:19;18.50;;;11.85;;
49502;SDS011;35409;48.776;9.204;2022-11-11T07:34:45;18.98;;;12.50;;
49502;SDS011;35409;48.776;9.204;2022-11-11T07:37:11;18.00;;;12.30;;
49502;SDS011;35409;48.776;9.204;2022-11-11T07:39:36;20.30;;;13.13;;
49502;SDS011;35409;48.776;9.204;2022-11-11T07:42:02;18.17;;;12.45;;
49502;SDS011;35409;48.776;9.204;2022-11-11T07:44:27;25.92;;;14.85;;
49502;SDS011;35409;48.776;9.204;2022-11-11T07:46:53;17.50;;;10.98;;
49502;SDS011;35409;48.776;9.204;2022-11-11T07:49:19;20.65;;;10.80;;
49502;SDS011;35409;48.776;9.204;2022-11-11T07:51:44;14.43;;;10.43;;
49502;SDS011;35409;48.776;9.204;2022-11-11T07:54:10;14.40;;;11.27;;
49502;SDS011;35409;48.776;9.204;2022-11-11T07:56:35;17.50;;;11.80;;
49502;SDS011;35409;48.776;9.204;2022-11-11T07:59:01;19.58;;;12.32;;
49502;SDS011;35409;48.776;9.204;2022-11-11T08:01:27;19.25;;;11.75;;
49502;SDS011;35409;48.776;9.204;2022-11-11T08:03:52;14.57;;;10.25;;
49502;SDS011;35409;48.776;9.204;2022-11-11T08:06:18;16.88;;;10.32;;
49502;SDS011;35409;48.776;9.204;2022-11-11T08:08:45;13.95;;;8.95;;
49502;SDS011;35409;48.776;9.204;2022-11-11T08:11:12;12.63;;;9.55;;
49502;SDS011;35409;48.776;9.204;2022-11-11T08:13:38;16.63;;;9.55;;
49502;SDS011;35409;48.776;9.204;2022-11-11T08:16:05;12.88;;;7.70;;
49502;SDS011;35409;48.776;9.204;2022-11-11T08:18:32;19.08;;;7.75;;
49502;SDS011;35409;48.776;9.204;2022-11-11T08:20:58;12.32;;;8.25;;
49502;SDS011;35409;48.776;9.204;2022-11-11T08:23:24;10.32;;;6.40;;
49502;SDS011;35409;48.776;9.204;2022-11-11T08:26:00;13.55;;;6.97;;
49502;SDS011;35409;48.776;9.204;2022-11-11T08:28:27;12.82;;;6.45;;
49502;SDS011;35409;48.776;9.204;2022-11-11T08:30:54;10.23;;;7.05;;
49502;SDS011;35409;48.776;9.204;2022-11-11T08:33:22;10.75;;;7.18;;
49502;SDS011;35409;48.776;9.204;2022-11-11T08:35:47;10.43;;;6.72;;
49502;SDS011;35409;48.776;9.204;2022-11-11T08:38:13;9.50;;;5.68;;
49502;SDS011;35409;48.776;9.204;2022-11-11T08:40:39;10.02;;;6.22;;
49502;SDS011;35409;48.776;9.204;2022-11-11T08:43:04;10.00;;;6.50;;
49502;SDS011;35409;48.776;9.204;2022-11-11T08:45:30;10.88;;;6.78;;
49502;SDS011;35409;48.776;9.204;2022-11-11T08:47:55;8.95;;;6.80;;
49502;SDS011;35409;48.776;9.204;2022-11-11T08:50:21;9.23;;;6.38;;
49502;SDS011;35409;48.776;9.204;2022-11-11T08:52:50;9.70;;;6.25;;
49502;SDS011;35409;48.776;9.204;2022-11-11T08:55:17;7.97;;;5.90;;
49502;SDS011;35409;48.776;9.204;2022-11-11T08:57:43;10.60;;;6.57;;
49502;SDS011;35409;48.776;9.204;2022-11-11T09:00:08;9.63;;;7.13;;
49502;SDS011;35409;48.776;9.204;2022-11-11T09:02:35;9.95;;;7.50;;
49502;SDS011;35409;48.776;9.204;2022-11-11T09:05:01;12.73;;;7.50;;
49502;SDS011;35409;48.776;9.204;2022-11-11T09:07:27;15.25;;;8.48;;
49502;SDS011;35409;48.776;9.204;2022-11-11T09:09:52;11.05;;;8.02;;
49502;SDS011;35409;48.776;9.204;2022-11-11T09:12:18;11.90;;;7.25;;
49502;SDS011;35409;48.776;9.204;2022-11-11T09:14:44;15.75;;;7.45;;
49502;SDS011;35409;48.776;9.204;2022-11-11T09:17:10;10.68;;;6.25;;
49502;SDS011;35409;48.776;9.204;2022-11-11T09:19:35;9.98;;;6.45;;
49502;SDS011;35409;48.776;9.204;2022-11-11T09:22:01;9.57;;;6.45;;
49502;SDS011;35409;48.776;9.204;2022-11-11T09:24:27;9.55;;;6.97;;
49502;SDS011;35409;48.776;9.204;2022-11-11T09:26:52;10.55;;;6.95;;
49502;SDS011;35409;48.776;9.204;2022-11-11T09:29:18;11.00;;;7.18;;
49502;SDS011;35409;48.776;9.204;2022-11-11T09:31:44;11.20;;;6.90;;
49502;SDS011;35409;48.776;9.204;2022-11-11T09:34:11;12.23;;;6.38;;
49502;SDS011;35409;48.776;9.204;2022-11-11T09:36:37;12.13;;;6.95;;
49502;SDS011;35409;48.776;9.204;2022-11-11T09:39:03;12.07;;;6.88;;
49502;SDS011;35409;48.776;9.204;2022-11-11T09:44:08;11.43;;;7.05;;
49502;SDS011;35409;48.776;9.204;2022-11-11T09:47:03;12.07;;;6.47;;
49502;SDS011;35409;48.776;9.204;2022-11-11T09:52:13;7.22;;;5.93;;
49502;SDS011;35409;48.776;9.204;2022-11-11T09:55:01;10.40;;;6.68;;
49502;SDS011;35409;48.776;9.204;2022-11-11T09:57:37;9.60;;;6.35;;
49502;SDS011;35409;48.776;9.204;2022-11-11T10:00:28;11.18;;;6.25;;
49502;SDS011;35409;48.776;9.204;2022-11-11T10:02:56;11.20;;;6.68;;
49502;SDS011;35409;48.776;9.204;2022-11-11T10:06:00;11.48;;;7.18;;
49502;SDS011;35409;48.776;9.204;2022-11-11T10:11:01;9.73;;;6.60;;
49502;SDS011;35409;48.776;9.204;2022-11-11T10:13:35;10.13;;;6.38;;
49502;SDS011;35409;48.776;9.204;2022-11-11T10:16:16;8.20;;;6.00;;
49502;SDS011;35409;48.776;9.204;2022-11-11T10:21:22;10.15;;;6.43;;
49502;SDS011;35409;48.776;9.204;2022-11-11T10:23:59;6.75;;;5.50;;
49502;SDS011;35409;48.776;9.204;2022-11-11T10:26:38;9.90;;;6.60;;
49502;SDS011;35409;48.776;9.204;2022-11-11T10:29:14;9.60;;;6.90;;
49502;SDS011;35409;48.776;9.204;2022-11-11T10:31:47;10.13;;;6.38;;
49502;SDS011;35409;48.776;9.204;2022-11-11T10:34:28;13.15;;;7.35;;
49502;SDS011;35409;48.776;9.204;2022-11-11T10:36:57;10.00;;;6.20;;
49502;SDS011;35409;48.776;9.204;2022-11-11T10:39:43;10.43;;;6.93;;
49502;SDS011;35409;48.776;9.204;2022-11-11T10:42:34;7.87;;;5.70;;
49502;SDS011;35409;48.776;9.204;2022-11-11T10:45:00;8.23;;;6.50;;
49502;SDS011;35409;48.776;9.204;2022-11-11T10:52:42;10.65;;;6.55;;
49502;SDS011;35409;48.776;9.204;2022-11-11T10:55:22;10.38;;;6.00;;
49502;SDS011;35409;48.776;9.204;2022-11-11T10:57:56;8.55;;;5.32;;
49502;SDS011;35409;48.776;9.204;2022-11-11T11:00:35;8.10;;;5.80;;
49502;SDS011;35409;48.776;9.204;2022-11-11T11:03:10;7.88;;;5.95;;
49502;SDS011;35409;48.776;9.204;2022-11-11T11:05:47;8.15;;;5.28;;
49502;SDS011;35409;48.776;9.204;2022-11-11T11:08:28;9.60;;;6.03;;
49502;SDS011;35409;48.776;9.204;2022-11-11T11:11:00;11.25;;;6.10;;
49502;SDS011;35409;48.776;9.204;2022-11-11T11:13:42;7.90;;;5.10;;
49502;SDS011;35409;48.776;9.204;2022-11-11T11:16:16;10.60;;;6.38;;
49502;SDS011;35409;48.776;9.204;2022-11-11T11:21:46;9.90;;;5.85;;
49502;SDS011;35409;48.776;9.204;2022-11-11T11:26:56;9.50;;;5.77;;
49502;SDS011;35409;48.776;9.204;2022-11-11T11:29:59;9.45;;;5.00;;
49502;SDS011;35409;48.776;9.204;2022-11-11T11:32:17;18.00;;;5.75;;
49502;SDS011;35409;48.776;9.204;2022-11-11T11:37:18;10.40;;;5.57;;
49502;SDS011;35409;48.776;9.204;2022-11-11T11:39:46;7.43;;;5.18;;
49502;SDS011;35409;48.776;9.204;2022-11-11T11:42:31;9.43;;;5.57;;
49502;SDS011;35409;48.776;9.204;2022-11-11T11:47:50;10.23;;;5.93;;
49502;SDS011;35409;48.776;9.204;2022-11-11T11:50:47;9.13;;;6.45;;
49502;SDS011;35409;48.776;9.204;2022-11-11T11:53:39;8.25;;;5.65;;
49502;SDS011;35409;48.776;9.204;2022-11-11T11:56:39;9.80;;;5.90;;
49502;SDS011;35409;48.776;9.204;2022-11-11T12:15:39;9.05;;;4.93;;
49502;SDS011;35409;48.776;9.204;2022-11-11T12:21:15;7.75;;;5.13;;
49502;SDS011;35409;48.776;9.204;2022-11-11T12:31:26;7.85;;;5.63;;
49502;SDS011;35409;48.776;9.204;2022-11-11T12:34:05;7.85;;;5.38;;
49502;SDS011;35409;48.776;9.204;2022-11-11T12:42:10;7.07;;;5.68;;
49502;SDS011;35409;48.776;9.204;2022-11-11T12:50:45;10.02;;;5.10;;
49502;SDS011;35409;48.776;9.204;2022-11-11T13:10:29;10.18;;;4.80;;
49502;SDS011;35409;48.776;9.204;2022-11-11T13:15:42;5.70;;;3.67;;
49502;SDS011;35409;48.776;9.204;2022-11-11T13:18:09;6.78;;;4.13;;
49502;SDS011;35409;48.776;9.204;2022-11-11T13:20:55;7.00;;;4.07;;
49502;SDS011;35409;48.776;9.204;2022-11-11T13:23:23;9.25;;;4.43;;
49502;SDS011;35409;48.776;9.204;2022-11-11T13:25:54;7.65;;;4.13;;
49502;SDS011;35409;48.776;9.204;2022-11-11T13:28:28;6.00;;;3.70;;
49502;SDS011;35409;48.776;9.204;2022-11-11T13:31:11;6.40;;;3.85;;
49502;SDS011;35409;48.776;9.204;2022-11-11T13:33:43;6.78;;;3.97;;
49502;SDS011;35409;48.776;9.204;2022-11-11T13:36:13;6.93;;;3.72;;
49502;SDS011;35409;48.776;9.204;2022-11-11T13:38:45;8.83;;;4.33;;
49502;SDS011;35409;48.776;9.204;2022-11-11T13:44:16;9.05;;;3.97;;
49502;SDS011;35409;48.776;9.204;2022-11-11T13:47:02;5.18;;;3.25;;
49502;SDS011;35409;48.776;9.204;2022-11-11T13:49:37;5.75;;;2.97;;
49502;SDS011;35409;48.776;9.204;2022-11-11T13:52:19;6.47;;;3.70;;
49502;SDS011;35409;48.776;9.204;2022-11-11T13:54:54;7.47;;;3.85;;
49502;SDS011;35409;48.776;9.204;2022-11-11T13:57:24;8.05;;;3.83;;
49502;SDS011;35409;48.776;9.204;2022-11-11T13:59:59;5.97;;;3.42;;
49502;SDS011;35409;48.776;9.204;2022-11-11T14:10:09;8.27;;;4.10;;
49502;SDS011;35409;48.776;9.204;2022-11-11T14:15:46;13.25;;;4.05;;
49502;SDS011;35409;48.776;9.204;2022-11-11T14:20:51;7.05;;;3.60;;
49502;SDS011;35409;48.776;9.204;2022-11-11T14:28:30;7.25;;;4.25;;
49502;SDS011;35409;48.776;9.204;2022-11-11T14:39:34;5.05;;;3.70;;
49502;SDS011;35409;48.776;9.204;2022-11-11T14:42:01;5.07;;;3.38;;
49502;SDS011;35409;48.776;9.204;2022-11-11T15:00:03;6.53;;;3.60;;
49502;SDS011;35409;48.776;9.204;2022-11-11T15:02:35;10.07;;;4.68;;
49502;SDS011;35409;48.776;9.204;2022-11-11T15:05:04;7.35;;;4.55;;
49502;SDS011;35409;48.776;9.204;2022-11-11T15:10:11;7.55;;;3.83;;
49502;SDS011;35409;48.776;9.204;2022-11-11T15:15:34;11.75;;;4.90;;
49502;SDS011;35409;48.776;9.204;2022-11-11T15:18:10;10.20;;;6.18;;
49502;SDS011;35409;48.776;9.204;2022-11-11T15:20:55;10.40;;;5.20;;
49502;SDS011;35409;48.776;9.204;2022-11-11T15:26:17;7.68;;;4.10;;
49502;SDS011;35409;48.776;9.204;2022-11-11T15:31:29;6.00;;;3.38;;
49502;SDS011;35409;48.776;9.204;2022-11-11T15:39:24;5.20;;;2.90;;
49502;SDS011;35409;48.776;9.204;2022-11-11T15:41:56;7.57;;;3.58;;
49502;SDS011;35409;48.776;9.204;2022-11-11T15:44:26;5.93;;;3.42;;
49502;SDS011;35409;48.776;9.204;2022-11-11T15:46:54;5.72;;;3.53;;
49502;SDS011;35409;48.776;9.204;2022-11-11T15:52:02;8.45;;;4.28;;
49502;SDS011;35409;48.776;9.204;2022-11-11T15:54:31;10.18;;;4.22;;
49502;SDS011;35409;48.776;9.204;2022-11-11T15:56:59;9.77;;;4.43;;
49502;SDS011;35409;48.776;9.204;2022-11-11T15:59:38;11.27;;;4.03;;
49502;SDS011;35409;48.776;9.204;2022-11-11T16:02:28;6.38;;;3.20;;
49502;SDS011;35409;48.776;9.204;2022-11-11T16:04:57;8.05;;;3.78;;
49502;SDS011;35409;48.776;9.204;2022-11-11T16:07:30;5.75;;;3.47;;
49502;SDS011;35409;48.776;9.204;2022-11-11T16:10:04;10.75;;;4.03;;
49502;SDS011;35409;48.776;9.204;2022-11-11T16:15:41;6.40;;;3.28;;
49502;SDS011;35409;48.776;9.204;2022-11-11T16:18:17;11.35;;;3.85;;
49502;SDS011;35409;48.776;9.204;2022-11-11T16:20:54;13.98;;;4.63;;
49502;SDS011;35409;48.776;9.204;2022-11-11T16:23:37;10.82;;;5.00;;
49502;SDS011;35409;48.776;9.204;2022-11-11T16:26:03;7.72;;;4.68;;
49502;SDS011;35409;48.776;9.204;2022-11-11T16:28:32;7.05;;;4.00;;
49502;SDS011;35409;48.776;9.204;2022-11-11T16:33:55;5.00;;;3.28;;
49502;SDS011;35409;48.776;9.204;2022-11-11T16:36:21;8.13;;;3.60;;
49502;SDS011;35409;48.776;9.204;2022-11-11T16:38:47;7.05;;;3.65;;
49502;SDS011;35409;48.776;9.204;2022-11-11T16:41:25;6.93;;;4.00;;
49502;SDS011;35409;48.776;9.204;2022-11-11T16:43:58;7.30;;;3.75;;
49502;SDS011;35409;48.776;9.204;2022-11-11T16:51:47;7.10;;;4.50;;
49502;SDS011;35409;48.776;9.204;2022-11-11T16:54:17;9.82;;;5.18;;
49502;SDS011;35409;48.776;9.204;2022-11-11T16:56:55;12.10;;;6.38;;
49502;SDS011;35409;48.776;9.204;2022-11-11T16:59:26;14.85;;;5.38;;
49502;SDS011;35409;48.776;9.204;2022-11-11T17:02:16;8.75;;;4.70;;
49502;SDS011;35409;48.776;9.204;2022-11-11T17:07:46;9.30;;;4.20;;
49502;SDS011;35409;48.776;9.204;2022-11-11T17:12:32;10.20;;;4.93;;
49502;SDS011;35409;48.776;9.204;2022-11-11T17:15:05;14.85;;;6.25;;
49502;SDS011;35409;48.776;9.204;2022-11-11T17:17:33;11.18;;;5.40;;
49502;SDS011;35409;48.776;9.204;2022-11-11T17:20:00;10.68;;;5.28;;
49502;SDS011;35409;48.776;9.204;2022-11-11T17:22:28;9.40;;;5.35;;
49502;SDS011;35409;48.776;9.204;2022-11-11T17:24:54;8.95;;;5.10;;
49502;SDS011;35409;48.776;9.204;2022-11-11T17:27:20;7.45;;;5.28;;
49502;SDS011;35409;48.776;9.204;2022-11-11T17:29:45;10.30;;;6.05;;
49502;SDS011;35409;48.776;9.204;2022-11-11T17:32:12;7.20;;;4.80;;
49502;SDS011;35409;48.776;9.204;2022-11-11T17:34:38;6.65;;;5.22;;
49502;SDS011;35409;48.776;9.204;2022-11-11T17:37:03;7.35;;;5.28;;
49502;SDS011;35409;48.776;9.204;2022-11-11T17:39:30;9.40;;;5.80;;
49502;SDS011;35409;48.776;9.204;2022-11-11T17:41:56;11.70;;;6.13;;
49502;SDS011;35409;48.776;9.204;2022-11-11T17:44:21;11.52;;;6.18;;
49502;SDS011;35409;48.776;9.204;2022-11-11T17:46:47;10.30;;;6.53;;
49502;SDS011;35409;48.776;9.204;2022-11-11T17:49:12;12.35;;;6.00;;
49502;SDS011;35409;48.776;9.204;2022-11-11T17:51:39;11.65;;;5.75;;
49502;SDS011;35409;48.776;9.204;2022-11-11T17:54:06;12.32;;;7.85;;
49502;SDS011;35409;48.776;9.204;2022-11-11T17:56:32;10.55;;;6.88;;
49502;SDS011;35409;48.776;9.204;2022-11-11T17:58:58;10.60;;;6.78;;
49502;SDS011;35409;48.776;9.204;2022-11-11T18:01:23;12.95;;;7.35;;
49502;SDS011;35409;48.776;9.204;2022-11-11T18:03:53;18.33;;;11.13;;
49502;SDS011;35409;48.776;9.204;2022-11-11T18:08:45;14.73;;;9.45;;